createdAt,value
2023-05-21T00:01:45.888Z,4.10
2023-05-21T00:04:13.280Z,3.55
2023-05-21T00:06:40.409Z,3.15
2023-05-21T00:09:08.067Z,3.92
2023-05-21T00:11:35.218Z,3.00
2023-05-21T00:14:02.378Z,3.88
2023-05-21T00:16:29.462Z,4.43
2023-05-21T00:18:58.234Z,3.75
2023-05-21T00:21:26.616Z,3.40
2023-05-21T00:23:57.209Z,3.28
2023-05-21T00:26:24.414Z,4.03
2023-05-21T00:28:54.536Z,3.75
2023-05-21T00:31:21.916Z,3.80
2023-05-21T00:33:49.027Z,4.70
2023-05-21T00:36:16.159Z,5.03
2023-05-21T00:38:44.213Z,4.07
2023-05-21T00:41:12.000Z,4.72
2023-05-21T00:43:42.296Z,3.42
2023-05-21T00:46:19.774Z,3.40
2023-05-21T00:48:48.132Z,3.45
2023-05-21T00:51:16.713Z,3.88
2023-05-21T00:53:44.927Z,4.00
2023-05-21T00:56:12.334Z,4.03
2023-05-21T00:58:40.706Z,3.65
2023-05-21T01:01:13.880Z,3.58
2023-05-21T01:03:41.337Z,3.55
2023-05-21T01:06:09.886Z,4.00
2023-05-21T01:08:40.912Z,3.78
2023-05-21T01:11:10.870Z,4.13
2023-05-21T01:13:41.518Z,4.53
2023-05-21T01:16:09.553Z,4.03
2023-05-21T01:18:38.104Z,4.38
2023-05-21T01:21:07.538Z,3.97
2023-05-21T01:23:35.449Z,4.53
2023-05-21T01:26:02.486Z,3.88
2023-05-21T01:28:30.067Z,4.82
2023-05-21T01:31:00.942Z,3.53
2023-05-21T01:33:41.943Z,3.80
2023-05-21T01:36:24.371Z,3.53
2023-05-21T01:39:09.645Z,3.92
2023-05-21T01:41:42.046Z,5.07
2023-05-21T01:44:10.244Z,3.95
2023-05-21T01:46:38.659Z,3.92
2023-05-21T01:49:07.897Z,4.22
2023-05-21T01:51:36.211Z,3.70
2023-05-21T01:54:03.667Z,4.22
2023-05-21T01:56:34.032Z,3.65
2023-05-21T01:59:01.314Z,3.65
2023-05-21T02:01:30.443Z,4.13
2023-05-21T02:03:58.433Z,3.80
2023-05-21T02:06:25.735Z,4.03
2023-05-21T02:08:52.827Z,3.63
2023-05-21T02:11:19.962Z,3.25
2023-05-21T02:13:46.978Z,4.30
2023-05-21T02:16:15.977Z,3.53
2023-05-21T02:18:43.718Z,3.83
2023-05-21T02:21:11.631Z,3.97
2023-05-21T02:23:38.915Z,3.90
2023-05-21T02:26:05.937Z,3.70
2023-05-21T02:28:32.961Z,3.67
2023-05-21T02:31:00.111Z,4.18
2023-05-21T02:33:27.119Z,4.03
2023-05-21T02:35:54.261Z,4.25
2023-05-21T02:38:23.156Z,3.67
2023-05-21T02:40:53.688Z,4.13
2023-05-21T02:43:20.987Z,4.10
2023-05-21T02:45:48.108Z,4.88
2023-05-21T02:48:15.281Z,3.70
2023-05-21T02:50:42.860Z,4.07
2023-05-21T02:53:10.009Z,4.47
2023-05-21T02:55:37.440Z,3.80
2023-05-21T02:58:05.588Z,3.70
2023-05-21T03:00:32.732Z,3.85
2023-05-21T03:03:00.761Z,4.43
2023-05-21T03:05:27.909Z,3.63
2023-05-21T03:07:54.909Z,3.15
2023-05-21T03:10:21.944Z,3.45
2023-05-21T03:12:49.091Z,3.75
2023-05-21T03:15:16.371Z,4.20
2023-05-21T03:17:44.674Z,4.30
2023-05-21T03:20:18.907Z,4.05
2023-05-21T03:22:46.784Z,3.22
2023-05-21T03:25:14.394Z,4.47
2023-05-21T03:27:41.442Z,3.30
2023-05-21T03:30:23.105Z,3.33
2023-05-21T03:33:08.988Z,4.00
2023-05-21T03:35:36.805Z,3.13
2023-05-21T03:38:04.663Z,3.25
2023-05-21T03:40:31.696Z,3.55
2023-05-21T03:42:58.823Z,3.38
2023-05-21T03:45:27.011Z,3.53
2023-05-21T03:48:18.283Z,3.30
2023-05-21T03:50:45.728Z,2.97
2023-05-21T03:53:13.971Z,3.10
2023-05-21T03:55:41.398Z,4.13
2023-05-21T03:58:09.659Z,2.97
2023-05-21T04:00:40.747Z,2.95
2023-05-21T04:03:07.831Z,3.17
2023-05-21T04:05:35.114Z,3.22
2023-05-21T04:08:02.461Z,3.08
2023-05-21T04:10:29.686Z,3.75
2023-05-21T04:12:56.765Z,3.63
2023-05-21T04:15:24.632Z,4.45
2023-05-21T04:17:52.657Z,3.20
2023-05-21T04:20:20.066Z,3.20
2023-05-21T04:22:47.690Z,3.42
2023-05-21T04:25:14.939Z,3.83
2023-05-21T04:27:43.733Z,3.25
2023-05-21T04:30:11.363Z,3.33
2023-05-21T04:32:39.496Z,3.53
2023-05-21T04:35:08.513Z,3.33
2023-05-21T04:37:36.418Z,2.97
2023-05-21T04:40:04.118Z,3.45
2023-05-21T04:42:33.109Z,3.28
2023-05-21T04:45:01.390Z,3.97
2023-05-21T04:47:30.693Z,2.95
2023-05-21T04:49:59.534Z,2.70
2023-05-21T04:52:28.146Z,3.00
2023-05-21T04:54:55.234Z,3.35
2023-05-21T04:57:24.644Z,3.55
2023-05-21T04:59:52.853Z,3.03
2023-05-21T05:02:20.036Z,3.00
2023-05-21T05:04:46.999Z,3.42
2023-05-21T05:07:15.196Z,3.78
2023-05-21T05:09:42.220Z,3.10
2023-05-21T05:12:09.337Z,2.80
2023-05-21T05:14:36.432Z,2.90
2023-05-21T05:17:05.806Z,2.90
2023-05-21T05:19:32.920Z,2.60
2023-05-21T05:22:00.012Z,2.65
2023-05-21T05:24:27.139Z,3.10
2023-05-21T05:26:54.539Z,2.90
2023-05-21T05:29:21.627Z,3.45
2023-05-21T05:31:49.894Z,3.00
2023-05-21T05:34:17.780Z,2.80
2023-05-21T05:36:44.821Z,2.70
2023-05-21T05:39:11.993Z,3.55
2023-05-21T05:41:39.978Z,2.92
2023-05-21T05:44:08.918Z,3.08
2023-05-21T05:46:37.944Z,3.92
2023-05-21T05:49:05.330Z,2.67
2023-05-21T05:51:32.480Z,2.72
2023-05-21T05:53:59.524Z,2.83
2023-05-21T05:56:27.140Z,3.10
2023-05-21T05:58:54.309Z,2.72
2023-05-21T06:01:24.829Z,3.35
2023-05-21T06:03:52.714Z,3.03
2023-05-21T06:06:20.205Z,2.83
2023-05-21T06:08:47.794Z,2.78
2023-05-21T06:11:17.334Z,2.50
2023-05-21T06:13:45.810Z,3.15
2023-05-21T06:16:14.075Z,2.67
2023-05-21T06:18:41.173Z,3.75
2023-05-21T06:21:08.768Z,2.92
2023-05-21T06:23:37.878Z,2.78
2023-05-21T06:26:05.426Z,3.13
2023-05-21T06:28:32.763Z,2.75
2023-05-21T06:31:01.154Z,3.05
2023-05-21T06:33:28.858Z,3.80
2023-05-21T06:35:56.075Z,3.75
2023-05-21T06:38:24.181Z,3.13
2023-05-21T06:40:51.244Z,3.05
2023-05-21T06:43:34.057Z,2.90
2023-05-21T06:46:20.047Z,4.10
2023-05-21T06:48:47.251Z,3.05
2023-05-21T06:51:14.444Z,3.40
2023-05-21T06:53:41.566Z,3.28
2023-05-21T06:56:08.822Z,3.17
2023-05-21T06:58:38.840Z,2.92
2023-05-21T07:01:06.118Z,4.40
2023-05-21T07:03:33.302Z,2.88
2023-05-21T07:06:00.619Z,2.95
2023-05-21T07:08:27.783Z,3.00
2023-05-21T07:10:56.583Z,2.70
2023-05-21T07:13:23.791Z,2.85
2023-05-21T07:15:50.950Z,2.78
2023-05-21T07:18:18.277Z,2.83
2023-05-21T07:20:45.494Z,2.88
2023-05-21T07:23:15.585Z,2.58
2023-05-21T07:25:42.676Z,2.60
2023-05-21T07:28:09.778Z,2.55
2023-05-21T07:30:37.171Z,2.72
2023-05-21T07:33:09.114Z,4.15
2023-05-21T07:35:36.635Z,2.80
2023-05-21T07:38:04.926Z,2.97
2023-05-21T07:40:32.275Z,3.30
2023-05-21T07:43:01.225Z,3.03
2023-05-21T07:45:30.320Z,2.78
2023-05-21T07:47:57.433Z,3.83
2023-05-21T07:50:25.857Z,3.05
2023-05-21T07:52:53.348Z,2.80
2023-05-21T07:55:21.441Z,3.40
2023-05-21T07:57:48.517Z,2.80
2023-05-21T08:00:19.238Z,4.05
2023-05-21T08:02:54.401Z,3.55
2023-05-21T08:05:23.606Z,3.25
2023-05-21T08:07:51.211Z,2.90
2023-05-21T08:10:19.592Z,2.85
2023-05-21T08:12:48.971Z,2.67
2023-05-21T08:15:16.350Z,3.15
2023-05-21T08:17:46.084Z,2.97
2023-05-21T08:20:14.522Z,2.60
2023-05-21T08:22:43.812Z,3.50
2023-05-21T08:25:11.718Z,2.40
2023-05-21T08:27:38.806Z,2.53
2023-05-21T08:30:06.991Z,2.45
2023-05-21T08:32:35.229Z,3.13
2023-05-21T08:35:02.380Z,3.10
2023-05-21T08:37:56.761Z,2.95
2023-05-21T08:40:55.559Z,2.80
2023-05-21T08:43:25.012Z,2.75
2023-05-21T08:45:57.355Z,2.50
2023-05-21T08:50:55.155Z,3.78
2023-05-21T08:53:29.976Z,3.35
2023-05-21T08:55:58.439Z,3.55
2023-05-21T08:58:37.469Z,3.75
2023-05-21T09:01:05.792Z,3.05
2023-05-21T09:03:39.476Z,2.92
2023-05-21T09:06:14.300Z,3.45
2023-05-21T09:08:48.417Z,3.10
2023-05-21T09:11:20.528Z,3.05
2023-05-21T09:13:55.451Z,3.40
2023-05-21T09:16:30.009Z,3.00
2023-05-21T09:18:57.413Z,2.70
2023-05-21T09:21:32.881Z,3.38
2023-05-21T09:24:12.244Z,2.78
2023-05-21T09:26:43.544Z,2.63
2023-05-21T09:29:13.561Z,2.83
2023-05-21T09:31:45.217Z,2.65
2023-05-21T09:34:16.534Z,3.47
2023-05-21T09:36:46.126Z,2.53
2023-05-21T09:39:27.957Z,2.55
2023-05-21T09:41:57.945Z,2.80
2023-05-21T09:44:26.455Z,2.83
2023-05-21T09:47:00.862Z,2.50
2023-05-21T09:49:28.405Z,2.50
2023-05-21T09:52:00.164Z,2.88
2023-05-21T09:54:33.044Z,2.92
2023-05-21T09:57:03.640Z,3.10
2023-05-21T09:59:38.582Z,2.75
2023-05-21T10:02:20.910Z,3.10
2023-05-21T10:04:53.030Z,2.38
2023-05-21T10:07:26.669Z,2.80
2023-05-21T10:09:58.458Z,2.55
2023-05-21T10:12:26.198Z,2.53
2023-05-21T10:15:03.978Z,2.72
2023-05-21T10:17:31.576Z,3.03
2023-05-21T10:20:00.710Z,2.53
2023-05-21T10:22:28.408Z,2.85
2023-05-21T10:24:57.093Z,2.72
2023-05-21T10:27:24.514Z,2.58
2023-05-21T10:29:54.610Z,2.63
2023-05-21T10:32:23.132Z,3.45
2023-05-21T10:34:53.571Z,3.45
2023-05-21T10:37:26.782Z,2.60
2023-05-21T10:39:54.784Z,2.83
2023-05-21T10:42:24.330Z,2.47
2023-05-21T10:45:26.087Z,2.70
2023-05-21T10:47:54.464Z,2.45
2023-05-21T10:50:58.412Z,2.55
2023-05-21T10:54:02.895Z,3.08
2023-05-21T10:56:29.911Z,2.60
2023-05-21T10:58:59.771Z,2.50
2023-05-21T11:01:30.214Z,2.53
2023-05-21T11:03:58.116Z,2.58
2023-05-21T11:06:26.766Z,2.65
2023-05-21T11:08:55.486Z,2.90
2023-05-21T11:11:51.348Z,2.67
2023-05-21T11:14:27.313Z,2.70
2023-05-21T11:16:55.199Z,2.08
2023-05-21T11:19:22.377Z,2.90
2023-05-21T11:21:55.365Z,2.80
2023-05-21T11:24:23.918Z,2.45
2023-05-21T11:26:52.291Z,2.42
2023-05-21T11:29:21.305Z,2.75
2023-05-21T11:32:04.221Z,2.75
2023-05-21T11:34:42.337Z,3.30
2023-05-21T11:37:18.389Z,2.70
2023-05-21T11:39:45.831Z,2.70
2023-05-21T11:42:13.378Z,2.58
2023-05-21T11:44:42.209Z,2.20
2023-05-21T11:47:15.056Z,2.88
2023-05-21T11:49:42.878Z,2.67
2023-05-21T11:52:11.704Z,2.47
2023-05-21T11:54:50.878Z,2.70
2023-05-21T11:57:21.274Z,2.75
2023-05-21T11:59:54.352Z,2.70
2023-05-21T12:02:22.443Z,2.65
2023-05-21T12:04:51.661Z,2.30
2023-05-21T12:07:19.799Z,2.58
2023-05-21T12:09:49.334Z,2.42
2023-05-21T12:12:24.489Z,2.20
2023-05-21T12:14:53.310Z,2.90
2023-05-21T12:17:23.022Z,2.53
2023-05-21T12:19:53.413Z,2.95
2023-05-21T12:22:20.952Z,2.70
2023-05-21T12:24:48.918Z,2.88
2023-05-21T12:27:17.045Z,2.60
2023-05-21T12:29:45.752Z,2.72
2023-05-21T12:32:15.141Z,2.78
2023-05-21T12:34:54.858Z,3.13
2023-05-21T12:37:22.886Z,2.58
2023-05-21T12:39:51.718Z,2.60
2023-05-21T12:42:45.110Z,2.92
2023-05-21T12:45:12.802Z,2.60
2023-05-21T12:47:39.863Z,2.28
2023-05-21T12:50:14.151Z,2.80
2023-05-21T12:52:43.248Z,2.50
2023-05-21T12:55:14.038Z,2.63
2023-05-21T12:57:41.569Z,2.50
2023-05-21T13:00:10.387Z,2.50
2023-05-21T13:02:42.291Z,2.40
2023-05-21T13:05:15.785Z,2.78
2023-05-21T13:07:44.265Z,2.03
2023-05-21T13:10:12.378Z,2.60
2023-05-21T13:12:40.760Z,1.95
2023-05-21T13:15:08.955Z,1.67
2023-05-21T13:17:36.065Z,2.17
2023-05-21T13:20:12.865Z,2.50
2023-05-21T13:22:43.036Z,1.88
2023-05-21T13:25:15.962Z,1.50
2023-05-21T13:27:43.860Z,2.28
2023-05-21T13:30:11.997Z,2.65
2023-05-21T13:32:40.504Z,2.58
2023-05-21T13:35:08.617Z,3.17
2023-05-21T13:37:36.642Z,1.98
2023-05-21T13:40:04.892Z,2.35
2023-05-21T13:42:32.480Z,1.90
2023-05-21T13:44:59.768Z,2.58
2023-05-21T13:47:26.885Z,2.60
2023-05-21T13:49:53.912Z,2.70
2023-05-21T13:52:21.723Z,2.30
2023-05-21T13:54:48.804Z,2.63
2023-05-21T13:57:16.233Z,1.95
2023-05-21T13:59:43.444Z,2.35
2023-05-21T14:02:10.852Z,1.92
2023-05-21T14:04:39.551Z,2.05
2023-05-21T14:07:07.163Z,1.90
2023-05-21T14:09:34.687Z,1.88
2023-05-21T14:12:01.852Z,1.50
2023-05-21T14:14:28.952Z,2.22
2023-05-21T14:16:56.164Z,1.83
2023-05-21T14:19:23.276Z,1.60
2023-05-21T14:21:52.715Z,1.35
2023-05-21T14:24:20.121Z,2.03
2023-05-21T14:26:47.153Z,2.00
2023-05-21T14:29:14.567Z,1.67
2023-05-21T14:31:41.740Z,1.55
2023-05-21T14:34:08.934Z,2.10
2023-05-21T14:36:36.639Z,2.17
2023-05-21T14:39:04.412Z,1.92
2023-05-21T14:41:31.688Z,1.80
2023-05-21T14:43:58.832Z,1.52
2023-05-21T14:46:26.109Z,1.70
2023-05-21T14:48:53.317Z,1.45
2023-05-21T14:51:20.542Z,1.83
2023-05-21T14:53:47.522Z,2.05
2023-05-21T14:56:14.632Z,2.08
2023-05-21T14:58:41.600Z,1.83
2023-05-21T15:01:08.993Z,1.67
2023-05-21T15:03:36.300Z,1.52
2023-05-21T15:06:03.629Z,1.83
2023-05-21T15:08:31.107Z,2.05
2023-05-21T15:10:58.134Z,2.08
2023-05-21T15:13:25.265Z,1.92
2023-05-21T15:15:52.417Z,2.20
2023-05-21T15:18:19.512Z,1.98
2023-05-21T15:20:46.533Z,1.92
2023-05-21T15:23:17.371Z,2.40
2023-05-21T15:25:48.303Z,2.28
2023-05-21T15:28:15.688Z,2.30
2023-05-21T15:30:43.105Z,2.33
2023-05-21T15:33:10.115Z,2.15
2023-05-21T15:35:37.655Z,2.45
2023-05-21T15:38:05.041Z,2.05
2023-05-21T15:40:32.858Z,2.50
2023-05-21T15:43:00.028Z,2.08
2023-05-21T15:45:27.032Z,2.75
2023-05-21T15:47:54.222Z,2.50
2023-05-21T15:50:21.370Z,2.13
2023-05-21T15:52:49.032Z,2.40
2023-05-21T15:55:17.715Z,2.47
2023-05-21T15:57:44.794Z,2.30
2023-05-21T16:00:12.746Z,2.08
2023-05-21T16:02:41.964Z,2.90
2023-05-21T16:05:09.579Z,3.00
2023-05-21T16:07:38.204Z,2.67
2023-05-21T16:10:06.705Z,2.53
2023-05-21T16:12:33.805Z,2.72
2023-05-21T16:15:00.954Z,3.42
2023-05-21T16:17:28.046Z,3.10
2023-05-21T16:19:55.087Z,2.53
2023-05-21T16:22:23.357Z,3.10
2023-05-21T16:24:50.757Z,2.72
2023-05-21T16:27:17.907Z,3.17
2023-05-21T16:29:45.005Z,2.83
2023-05-21T16:32:14.105Z,2.50
2023-05-21T16:34:41.603Z,2.80
2023-05-21T16:37:09.954Z,2.83
2023-05-21T16:39:37.448Z,2.60
2023-05-21T16:42:04.775Z,3.05
2023-05-21T16:44:32.478Z,2.95
2023-05-21T16:47:00.466Z,2.90
2023-05-21T16:49:28.073Z,3.45
2023-05-21T16:51:55.266Z,3.30
2023-05-21T16:54:22.385Z,3.25
2023-05-21T16:56:49.475Z,3.00
2023-05-21T16:59:16.719Z,2.90
2023-05-21T17:01:43.986Z,2.90
2023-05-21T17:04:11.196Z,3.08
2023-05-21T17:06:38.309Z,3.10
2023-05-21T17:09:05.501Z,2.47
2023-05-21T17:11:34.656Z,2.70
2023-05-21T17:14:01.660Z,3.25
2023-05-21T17:16:28.702Z,2.60
2023-05-21T17:18:55.884Z,3.20
2023-05-21T17:21:22.900Z,2.95
2023-05-21T17:23:49.884Z,3.45
2023-05-21T17:26:16.954Z,3.55
2023-05-21T17:28:44.023Z,3.00
2023-05-21T17:31:11.143Z,3.13
2023-05-21T17:33:38.389Z,3.15
2023-05-21T17:36:05.601Z,3.00
2023-05-21T17:38:32.691Z,2.97
2023-05-21T17:40:59.736Z,3.25
2023-05-21T17:43:31.974Z,3.65
2023-05-21T17:45:59.158Z,2.97
2023-05-21T17:48:26.673Z,2.88
2023-05-21T17:50:53.772Z,3.20
2023-05-21T17:53:20.838Z,2.97
2023-05-21T17:55:47.931Z,3.35
2023-05-21T17:58:15.012Z,2.88
2023-05-21T18:00:42.154Z,3.15
2023-05-21T18:03:09.267Z,3.03
2023-05-21T18:05:36.865Z,2.97
2023-05-21T18:08:05.208Z,3.63
2023-05-21T18:10:32.227Z,3.35
2023-05-21T18:12:59.326Z,3.20
2023-05-21T18:15:26.653Z,3.40
2023-05-21T18:17:53.765Z,3.10
2023-05-21T18:20:20.859Z,2.95
2023-05-21T18:22:47.900Z,3.30
2023-05-21T18:25:14.964Z,3.65
2023-05-21T18:27:42.076Z,3.03
2023-05-21T18:30:09.658Z,3.50
2023-05-21T18:32:39.598Z,3.30
2023-05-21T18:35:08.304Z,2.58
2023-05-21T18:37:35.400Z,2.85
2023-05-21T18:40:03.803Z,3.05
2023-05-21T18:42:30.954Z,3.47
2023-05-21T18:45:07.001Z,3.08
2023-05-21T18:47:34.443Z,3.22
2023-05-21T18:50:01.647Z,3.10
2023-05-21T18:52:28.740Z,3.20
2023-05-21T18:54:56.053Z,3.47
2023-05-21T18:57:23.104Z,3.17
2023-05-21T18:59:50.215Z,3.67
2023-05-21T19:02:17.361Z,3.30
2023-05-21T19:04:44.574Z,2.95
2023-05-21T19:07:11.783Z,3.28
2023-05-21T19:09:38.952Z,3.95
2023-05-21T19:12:06.475Z,3.00
2023-05-21T19:14:33.565Z,2.97
2023-05-21T19:17:00.543Z,3.15
2023-05-21T19:19:27.706Z,3.38
2023-05-21T19:21:54.806Z,3.10
2023-05-21T19:24:21.950Z,3.50
2023-05-21T19:26:49.024Z,3.40
2023-05-21T19:29:16.172Z,3.13
2023-05-21T19:31:43.298Z,3.60
2023-05-21T19:34:11.049Z,3.60
2023-05-21T19:36:51.562Z,3.53
2023-05-21T19:39:20.050Z,3.08
2023-05-21T19:41:47.132Z,3.08
2023-05-21T19:44:14.243Z,3.45
2023-05-21T19:46:41.476Z,3.30
2023-05-21T19:49:10.686Z,3.40
2023-05-21T19:51:38.140Z,3.13
2023-05-21T19:54:05.339Z,3.15
2023-05-21T19:56:32.365Z,3.00
2023-05-21T19:58:59.391Z,3.20
2023-05-21T20:01:26.582Z,4.03
2023-05-21T20:03:53.635Z,3.33
2023-05-21T20:06:20.915Z,3.30
2023-05-21T20:08:48.228Z,3.03
2023-05-21T20:11:15.730Z,3.45
2023-05-21T20:13:42.882Z,3.15
2023-05-21T20:16:10.689Z,3.33
2023-05-21T20:18:37.729Z,3.20
2023-05-21T20:21:06.325Z,3.20
2023-05-21T20:23:33.433Z,3.33
2023-05-21T20:26:00.563Z,3.28
2023-05-21T20:28:27.592Z,3.35
2023-05-21T20:30:59.406Z,3.67
2023-05-21T20:33:32.215Z,3.17
2023-05-21T20:35:59.377Z,3.03
2023-05-21T20:38:27.184Z,2.88
2023-05-21T20:40:55.191Z,2.58
2023-05-21T20:43:24.628Z,4.75
2023-05-21T20:45:59.687Z,3.10
2023-05-21T20:48:32.010Z,3.05
2023-05-21T20:51:00.369Z,3.25
2023-05-21T20:53:27.722Z,3.00
2023-05-21T20:55:54.898Z,3.08
2023-05-21T20:58:24.133Z,2.70
2023-05-21T21:00:51.365Z,2.70
2023-05-21T21:03:18.916Z,3.58
2023-05-21T21:05:46.248Z,3.80
2023-05-21T21:08:13.369Z,2.97
2023-05-21T21:10:42.551Z,3.25
2023-05-21T21:13:09.756Z,3.08
2023-05-21T21:15:37.003Z,3.20
2023-05-21T21:18:04.379Z,3.50
2023-05-21T21:20:31.484Z,3.03
2023-05-21T21:22:58.497Z,3.65
2023-05-21T21:25:25.581Z,3.15
2023-05-21T21:27:52.647Z,3.25
2023-05-21T21:30:19.804Z,3.05
2023-05-21T21:32:47.782Z,3.50
2023-05-21T21:35:14.982Z,3.42
2023-05-21T21:37:42.028Z,3.42
2023-05-21T21:40:09.606Z,3.47
2023-05-21T21:42:36.604Z,3.50
2023-05-21T21:45:04.752Z,3.45
2023-05-21T21:47:31.921Z,3.80
2023-05-21T21:49:59.161Z,3.15
2023-05-21T21:52:27.605Z,3.65
2023-05-21T21:54:58.122Z,3.75
2023-05-21T21:57:27.617Z,3.03
2023-05-21T21:59:54.614Z,3.65
2023-05-21T22:02:22.488Z,3.88
2023-05-21T22:04:49.753Z,3.97
2023-05-21T22:07:18.337Z,3.55
2023-05-21T22:09:45.961Z,3.35
2023-05-21T22:12:13.356Z,3.80
2023-05-21T22:14:40.384Z,3.92
2023-05-21T22:17:08.727Z,4.38
2023-05-21T22:19:36.112Z,4.55
2023-05-21T22:22:04.575Z,4.20
2023-05-21T22:24:33.156Z,3.78
2023-05-21T22:27:00.744Z,4.20
2023-05-21T22:29:27.805Z,3.88
2023-05-21T22:31:55.149Z,3.95
2023-05-21T22:34:23.165Z,4.85
2023-05-21T22:36:50.190Z,4.85
2023-05-21T22:39:18.009Z,4.50
2023-05-21T22:41:45.758Z,4.70
2023-05-21T22:44:12.754Z,4.80
2023-05-21T22:46:42.204Z,5.05
2023-05-21T22:49:10.379Z,4.20
2023-05-21T22:51:37.732Z,4.20
2023-05-21T22:54:04.949Z,4.22
2023-05-21T22:56:32.010Z,4.10
2023-05-21T22:58:59.665Z,4.03
2023-05-21T23:01:27.028Z,4.13
2023-05-21T23:03:54.110Z,3.60
2023-05-21T23:06:21.293Z,5.55
2023-05-21T23:08:48.483Z,4.10
2023-05-21T23:11:15.599Z,4.25
2023-05-21T23:13:42.694Z,4.25
2023-05-21T23:16:10.008Z,4.05
2023-05-21T23:18:37.149Z,3.58
2023-05-21T23:21:04.344Z,3.83
2023-05-21T23:23:31.339Z,4.32
2023-05-21T23:25:59.162Z,3.63
2023-05-21T23:28:26.608Z,4.03
2023-05-21T23:30:53.995Z,3.60
2023-05-21T23:33:21.698Z,3.63
2023-05-21T23:35:48.917Z,3.28
2023-05-21T23:38:15.906Z,3.20
2023-05-21T23:40:43.567Z,3.50
2023-05-21T23:43:10.794Z,3.75
2023-05-21T23:45:37.843Z,3.83
2023-05-21T23:48:05.213Z,3.78
2023-05-21T23:50:32.426Z,3.80
2023-05-21T23:52:59.696Z,3.45
2023-05-21T23:55:26.884Z,3.42
2023-05-21T23:57:53.877Z,3.33
